createdAt,value
2018-07-06T00:00:20.274Z,95366.00
2018-07-06T00:03:06.394Z,95363.00
2018-07-06T00:05:52.352Z,95373.00
2018-07-06T00:08:38.417Z,95370.00
2018-07-06T00:11:24.477Z,95365.00
2018-07-06T00:14:10.573Z,95366.00
2018-07-06T00:16:56.553Z,95359.00
2018-07-06T00:19:42.516Z,95357.00
2018-07-06T00:22:28.584Z,95362.00
2018-07-06T00:25:14.614Z,95370.00
2018-07-06T00:28:00.518Z,95370.00
2018-07-06T00:30:46.444Z,95372.00
2018-07-06T00:33:32.462Z,95362.00
2018-07-06T00:36:18.579Z,95380.00
2018-07-06T00:39:04.638Z,95384.00
2018-07-06T00:41:50.846Z,95383.00
2018-07-06T00:44:36.806Z,95380.00
2018-07-06T00:47:22.871Z,95383.00
2018-07-06T00:50:08.838Z,95383.00
2018-07-06T00:52:54.898Z,95378.00
2018-07-06T00:55:40.867Z,95378.00
2018-07-06T00:58:26.666Z,95375.00
2018-07-06T01:01:12.742Z,95381.00
2018-07-06T01:03:58.810Z,95379.00
2018-07-06T01:06:44.720Z,95386.00
2018-07-06T01:09:31.016Z,95388.00
2018-07-06T01:12:22.432Z,95374.00
2018-07-06T01:15:13.690Z,95375.00
2018-07-06T01:17:54.901Z,95373.00
2018-07-06T01:20:41.099Z,95378.00
2018-07-06T01:23:27.057Z,95368.00
2018-07-06T01:26:13.277Z,95376.00
2018-07-06T01:28:59.574Z,95371.00
2018-07-06T01:31:45.495Z,95377.00
2018-07-06T01:34:31.526Z,95376.00
2018-07-06T01:37:17.647Z,95374.00
2018-07-06T01:40:03.674Z,95363.00
2018-07-06T01:42:49.516Z,95367.00
2018-07-06T01:45:35.523Z,95365.00
2018-07-06T01:48:21.590Z,95362.00
2018-07-06T01:51:07.497Z,95368.00
2018-07-06T01:53:53.459Z,95358.00
2018-07-06T01:56:39.484Z,95357.00
2018-07-06T01:59:25.377Z,95357.00
2018-07-06T02:02:11.401Z,95366.00
2018-07-06T02:04:57.467Z,95359.00
2018-07-06T02:07:43.359Z,95358.00
2018-07-06T02:10:29.262Z,95364.00
2018-07-06T02:13:15.334Z,95356.00
2018-07-06T02:16:01.538Z,95358.00
2018-07-06T02:18:47.491Z,95362.00
2018-07-06T02:21:33.615Z,95355.00
2018-07-06T02:24:19.638Z,95352.00
2018-07-06T02:27:05.730Z,95359.00
2018-07-06T02:29:51.559Z,95350.00
2018-07-06T02:32:37.630Z,95355.00
2018-07-06T02:35:23.729Z,95351.00
2018-07-06T02:38:09.842Z,95354.00
2018-07-06T02:40:55.902Z,95355.00
2018-07-06T02:43:41.794Z,95361.00
2018-07-06T02:46:27.717Z,95364.00
2018-07-06T02:49:13.761Z,95352.00
2018-07-06T02:51:59.782Z,95366.00
2018-07-06T02:54:45.765Z,95354.00
2018-07-06T02:57:31.891Z,95365.00
2018-07-06T03:00:17.931Z,95367.00
2018-07-06T03:03:03.798Z,95358.00
2018-07-06T03:05:49.758Z,95351.00
2018-07-06T03:08:35.894Z,95362.00
2018-07-06T03:11:21.942Z,95358.00
2018-07-06T03:14:08.023Z,95361.00
2018-07-06T03:16:54.172Z,95362.00
2018-07-06T03:19:40.763Z,95362.00
2018-07-06T03:22:26.604Z,95371.00
2018-07-06T03:25:12.623Z,95365.00
2018-07-06T03:27:58.615Z,95368.00
2018-07-06T03:30:44.365Z,95366.00
2018-07-06T03:33:30.186Z,95363.00
2018-07-06T03:36:16.207Z,95359.00
2018-07-06T03:39:02.342Z,95361.00
2018-07-06T03:41:48.184Z,95370.00
2018-07-06T03:44:34.290Z,95371.00
2018-07-06T03:47:20.434Z,95361.00
2018-07-06T03:50:06.526Z,95368.00
2018-07-06T03:52:52.463Z,95376.00
2018-07-06T03:55:38.544Z,95371.00
2018-07-06T03:58:24.614Z,95365.00
2018-07-06T04:01:10.604Z,95366.00
2018-07-06T04:03:56.499Z,95366.00
2018-07-06T04:06:42.342Z,95370.00
2018-07-06T04:09:28.294Z,95370.00
2018-07-06T04:12:14.251Z,95377.00
2018-07-06T04:15:00.447Z,95379.00
2018-07-06T04:17:46.472Z,95378.00
2018-07-06T04:20:32.929Z,95378.00
2018-07-06T04:23:18.865Z,95378.00
2018-07-06T04:26:05.028Z,95383.00
2018-07-06T04:28:50.988Z,95387.00
2018-07-06T04:31:36.879Z,95383.00
2018-07-06T04:34:23.078Z,95382.00
2018-07-06T04:37:09.015Z,95381.00
2018-07-06T04:39:54.885Z,95375.00
2018-07-06T04:42:40.878Z,95374.00
2018-07-06T04:45:26.891Z,95378.00
2018-07-06T04:48:12.961Z,95382.00
2018-07-06T04:50:59.172Z,95386.00
2018-07-06T04:53:45.212Z,95385.00
2018-07-06T04:56:31.250Z,95381.00
2018-07-06T04:59:17.275Z,95380.00
2018-07-06T05:02:03.204Z,95392.00
2018-07-06T05:04:49.061Z,95389.00
2018-07-06T05:07:34.935Z,95384.00
2018-07-06T05:10:20.986Z,95377.00
2018-07-06T05:13:07.015Z,95375.00
2018-07-06T05:15:52.958Z,95385.00
2018-07-06T05:18:38.879Z,95373.00
2018-07-06T05:21:24.878Z,95379.00
2018-07-06T05:24:10.923Z,95388.00
2018-07-06T05:26:56.823Z,95383.00
2018-07-06T05:29:42.671Z,95382.00
2018-07-06T05:32:28.678Z,95391.00
2018-07-06T05:35:14.584Z,95385.00
2018-07-06T05:38:00.662Z,95394.00
2018-07-06T05:40:46.613Z,95394.00
2018-07-06T05:43:33.471Z,95402.00
2018-07-06T05:46:19.561Z,95392.00
2018-07-06T05:49:05.579Z,95389.00
2018-07-06T05:51:51.853Z,95393.00
2018-07-06T05:54:37.892Z,95389.00
2018-07-06T05:57:24.015Z,95400.00
2018-07-06T06:00:10.253Z,95401.00
2018-07-06T06:02:56.349Z,95401.00
2018-07-06T06:05:42.493Z,95397.00
2018-07-06T06:08:10.035Z,95407.00
2018-07-06T06:10:39.254Z,95403.00
2018-07-06T06:13:08.410Z,95408.00
2018-07-06T06:15:37.610Z,95405.00
2018-07-06T06:18:07.512Z,95407.00
2018-07-06T06:20:36.682Z,95408.00
2018-07-06T06:23:05.614Z,95410.00
2018-07-06T06:25:34.787Z,95413.00
2018-07-06T06:28:03.878Z,95415.00
2018-07-06T06:30:33.011Z,95410.00
2018-07-06T06:33:02.387Z,95406.00
2018-07-06T06:35:31.414Z,95415.00
2018-07-06T06:38:00.583Z,95415.00
2018-07-06T06:40:29.675Z,95410.00
2018-07-06T06:42:58.778Z,95409.00
2018-07-06T06:45:27.804Z,95414.00
2018-07-06T06:47:56.830Z,95419.00
2018-07-06T06:50:26.003Z,95424.00
2018-07-06T06:52:54.837Z,95419.00
2018-07-06T06:55:23.910Z,95419.00
2018-07-06T06:57:52.935Z,95414.00
2018-07-06T07:00:27.399Z,95419.00
2018-07-06T07:02:51.093Z,95426.00
2018-07-06T07:05:20.209Z,95408.00
2018-07-06T07:07:49.380Z,95420.00
2018-07-06T07:10:18.738Z,95418.00
2018-07-06T07:12:48.049Z,95423.00
2018-07-06T07:15:17.926Z,95422.00
2018-07-06T07:17:47.903Z,95421.00
2018-07-06T07:20:18.092Z,95429.00
2018-07-06T07:22:48.099Z,95429.00
2018-07-06T07:25:18.022Z,95438.00
2018-07-06T07:27:48.071Z,95428.00
2018-07-06T07:30:18.075Z,95436.00
2018-07-06T07:32:48.377Z,95431.00
2018-07-06T07:35:18.371Z,95434.00
2018-07-06T07:37:48.014Z,95432.00
2018-07-06T07:40:18.186Z,95434.00
2018-07-06T07:42:48.033Z,95433.00
2018-07-06T07:45:18.371Z,95430.00
2018-07-06T07:47:48.741Z,95429.00
2018-07-06T07:50:18.391Z,95439.00
2018-07-06T07:54:03.058Z,95427.00
2018-07-06T07:56:32.298Z,95433.00
2018-07-06T07:59:01.570Z,95437.00
2018-07-06T08:01:30.984Z,95434.00
2018-07-06T08:04:00.062Z,95437.00
2018-07-06T08:06:29.242Z,95439.00
2018-07-06T08:08:58.564Z,95441.00
2018-07-06T08:11:28.106Z,95442.00
2018-07-06T08:13:57.443Z,95445.00
2018-07-06T08:16:26.858Z,95436.00
2018-07-06T08:18:56.019Z,95452.00
2018-07-06T08:21:25.365Z,95450.00
2018-07-06T08:23:54.542Z,95440.00
2018-07-06T08:26:24.258Z,95460.00
2018-07-06T08:28:53.719Z,95451.00
2018-07-06T08:31:24.030Z,95464.00
2018-07-06T08:34:10.238Z,95465.00
2018-07-06T08:38:02.214Z,95450.00
2018-07-06T08:40:31.479Z,95453.00
2018-07-06T08:43:01.824Z,95463.00
2018-07-06T08:45:31.845Z,95466.00
2018-07-06T08:48:01.030Z,95465.00
2018-07-06T08:50:30.231Z,95481.00
2018-07-06T08:52:59.853Z,95466.00
2018-07-06T08:55:29.168Z,95463.00
2018-07-06T08:57:59.094Z,95463.00
2018-07-06T09:00:28.185Z,95462.00
2018-07-06T09:02:57.409Z,95470.00
2018-07-06T09:05:26.619Z,95476.00
2018-07-06T09:07:56.130Z,95469.00
2018-07-06T09:10:25.398Z,95459.00
2018-07-06T09:12:54.580Z,95467.00
2018-07-06T09:15:24.043Z,95469.00
2018-07-06T09:17:53.259Z,95473.00
2018-07-06T09:20:22.514Z,95471.00
2018-07-06T09:22:51.862Z,95469.00
2018-07-06T09:25:21.159Z,95476.00
2018-07-06T09:27:50.477Z,95482.00
2018-07-06T09:30:19.618Z,95479.00
2018-07-06T09:32:49.746Z,95477.00
2018-07-06T09:35:19.705Z,95471.00
2018-07-06T09:37:49.682Z,95483.00
2018-07-06T09:40:20.086Z,95478.00
2018-07-06T09:42:49.991Z,95482.00
2018-07-06T09:45:20.058Z,95490.00
2018-07-06T09:47:50.067Z,95485.00
2018-07-06T09:50:19.982Z,95481.00
2018-07-06T09:52:49.865Z,95483.00
2018-07-06T09:55:20.158Z,95476.00
2018-07-06T09:57:50.238Z,95479.00
2018-07-06T10:00:25.166Z,95483.00
2018-07-06T10:02:54.474Z,95484.00
2018-07-06T10:05:24.208Z,95485.00
2018-07-06T10:07:53.612Z,95489.00
2018-07-06T10:10:22.843Z,95494.00
2018-07-06T10:12:52.211Z,95492.00
2018-07-06T10:15:21.711Z,95490.00
2018-07-06T10:17:50.971Z,95498.00
2018-07-06T10:20:20.510Z,95499.00
2018-07-06T10:22:50.530Z,95503.00
2018-07-06T10:25:20.490Z,95508.00
2018-07-06T10:27:59.821Z,95509.00
2018-07-06T10:30:47.266Z,95499.00
2018-07-06T10:33:16.805Z,95506.00
2018-07-06T10:35:46.244Z,95504.00
2018-07-06T10:38:15.621Z,95505.00
2018-07-06T10:40:44.784Z,95513.00
2018-07-06T10:43:14.649Z,95510.00
2018-07-06T10:45:43.877Z,95515.00
2018-07-06T10:48:13.274Z,95508.00
2018-07-06T10:50:42.639Z,95513.00
2018-07-06T10:53:11.770Z,95511.00
2018-07-06T10:55:41.114Z,95522.00
2018-07-06T10:58:10.037Z,95518.00
2018-07-06T11:00:39.290Z,95522.00
2018-07-06T11:03:08.586Z,95524.00
2018-07-06T11:05:37.877Z,95523.00
2018-07-06T11:08:07.259Z,95522.00
2018-07-06T11:10:36.619Z,95519.00
2018-07-06T11:13:06.040Z,95516.00
2018-07-06T11:15:35.385Z,95524.00
2018-07-06T11:18:04.574Z,95529.00
2018-07-06T11:20:33.879Z,95524.00
2018-07-06T11:23:03.209Z,95521.00
2018-07-06T11:25:32.718Z,95509.00
2018-07-06T11:28:01.883Z,95521.00
2018-07-06T11:30:31.092Z,95529.00
2018-07-06T11:33:00.168Z,95525.00
2018-07-06T11:35:29.429Z,95531.00
2018-07-06T11:37:58.749Z,95532.00
2018-07-06T11:40:27.966Z,95539.00
2018-07-06T11:42:57.633Z,95538.00
2018-07-06T11:45:27.107Z,95538.00
2018-07-06T11:47:56.329Z,95535.00
2018-07-06T11:50:26.023Z,95530.00
2018-07-06T11:52:55.242Z,95533.00
2018-07-06T11:55:24.675Z,95539.00
2018-07-06T11:57:53.926Z,95532.00
2018-07-06T12:00:24.135Z,95526.00
2018-07-06T12:02:53.547Z,95530.00
2018-07-06T12:05:23.915Z,95536.00
2018-07-06T12:07:53.068Z,95523.00
2018-07-06T12:10:22.470Z,95534.00
2018-07-06T12:12:51.658Z,95540.00
2018-07-06T12:15:21.986Z,95536.00
2018-07-06T12:17:51.998Z,95533.00
2018-07-06T12:20:21.993Z,95524.00
2018-07-06T12:22:52.096Z,95531.00
2018-07-06T12:25:21.986Z,95533.00
2018-07-06T12:27:52.235Z,95539.00
2018-07-06T12:30:22.062Z,95545.00
2018-07-06T12:32:52.353Z,95543.00
2018-07-06T12:35:22.286Z,95550.00
2018-07-06T12:37:52.198Z,95553.00
2018-07-06T12:40:22.350Z,95561.00
2018-07-06T12:42:52.542Z,95565.00
2018-07-06T12:45:22.218Z,95554.00
2018-07-06T12:47:52.550Z,95561.00
2018-07-06T12:50:22.402Z,95561.00
2018-07-06T12:52:52.677Z,95565.00
2018-07-06T12:55:22.484Z,95555.00
2018-07-06T12:57:52.638Z,95564.00
2018-07-06T13:00:22.762Z,95560.00
2018-07-06T13:02:53.035Z,95560.00
2018-07-06T13:05:22.670Z,95567.00
2018-07-06T13:07:52.863Z,95566.00
2018-07-06T13:10:22.872Z,95567.00
2018-07-06T13:12:53.065Z,95569.00
2018-07-06T13:15:23.334Z,95571.00
2018-07-06T13:17:53.117Z,95572.00
2018-07-06T13:40:02.533Z,95572.00
2018-07-06T13:42:32.098Z,95605.00
2018-07-06T13:45:01.539Z,95596.00
2018-07-06T13:47:30.867Z,95600.00
2018-07-06T13:50:00.302Z,95599.00
2018-07-06T13:52:29.724Z,95600.00
2018-07-06T13:55:00.209Z,95600.00
2018-07-06T13:57:29.389Z,95599.00
2018-07-06T13:59:58.498Z,95602.00
2018-07-06T14:02:27.710Z,95607.00
2018-07-06T14:04:56.914Z,95612.00
2018-07-06T14:07:26.040Z,95604.00
2018-07-06T14:09:55.185Z,95607.00
2018-07-06T14:12:24.395Z,95606.00
2018-07-06T14:14:53.573Z,95601.00
2018-07-06T14:17:23.830Z,95600.00
2018-07-06T14:19:52.957Z,95614.00
2018-07-06T14:22:22.062Z,95620.00
2018-07-06T14:24:51.340Z,95612.00
2018-07-06T14:27:20.486Z,95611.00
2018-07-06T14:29:49.629Z,95613.00
2018-07-06T14:32:18.734Z,95605.00
2018-07-06T14:34:47.922Z,95608.00
2018-07-06T14:37:17.952Z,95608.00
2018-07-06T14:39:48.026Z,95621.00
2018-07-06T14:42:18.075Z,95621.00
2018-07-06T14:44:48.084Z,95613.00
2018-07-06T14:47:18.240Z,95613.00
2018-07-06T14:49:48.178Z,95617.00
2018-07-06T14:52:18.162Z,95620.00
2018-07-06T14:54:48.265Z,95624.00
2018-07-06T14:57:17.882Z,95626.00
2018-07-06T14:59:48.125Z,95619.00
2018-07-06T15:02:18.438Z,95614.00
2018-07-06T15:04:48.326Z,95621.00
2018-07-06T15:07:18.444Z,95616.00
2018-07-06T15:09:48.382Z,95611.00
2018-07-06T15:12:18.506Z,95612.00
2018-07-06T15:14:48.550Z,95618.00
2018-07-06T15:17:18.347Z,95620.00
2018-07-06T15:19:48.262Z,95617.00
2018-07-06T15:22:18.652Z,95623.00
2018-07-06T15:24:48.615Z,95622.00
2018-07-06T15:27:18.625Z,95627.00
2018-07-06T15:29:48.668Z,95630.00
2018-07-06T15:32:18.818Z,95627.00
2018-07-06T15:34:48.652Z,95622.00
2018-07-06T15:37:18.966Z,95622.00
2018-07-06T15:39:48.665Z,95623.00
2018-07-06T15:42:18.874Z,95626.00
2018-07-06T15:44:48.679Z,95621.00
2018-07-06T15:47:18.758Z,95629.00
2018-07-06T15:49:49.098Z,95630.00
2018-07-06T15:52:18.906Z,95633.00
2018-07-06T15:54:49.298Z,95626.00
2018-07-06T15:57:18.830Z,95632.00
2018-07-06T15:59:49.096Z,95636.00
2018-07-06T16:02:19.105Z,95640.00
2018-07-06T16:04:49.030Z,95644.00
2018-07-06T16:07:19.069Z,95638.00
2018-07-06T16:09:49.155Z,95648.00
2018-07-06T16:12:20.828Z,95650.00
2018-07-06T16:14:51.858Z,95653.00
2018-07-06T16:17:20.987Z,95648.00
2018-07-06T16:19:50.135Z,95651.00
2018-07-06T16:22:19.302Z,95648.00
2018-07-06T16:24:53.246Z,95657.00
2018-07-06T16:27:22.474Z,95659.00
2018-07-06T16:29:51.671Z,95654.00
2018-07-06T16:32:20.849Z,95661.00
2018-07-06T16:34:50.137Z,95668.00
2018-07-06T16:37:19.338Z,95658.00
2018-07-06T16:39:49.434Z,95667.00
2018-07-06T16:42:19.303Z,95657.00
2018-07-06T16:44:49.375Z,95659.00
2018-07-06T16:47:19.496Z,95665.00
2018-07-06T16:49:49.450Z,95663.00
2018-07-06T16:52:19.484Z,95672.00
2018-07-06T16:54:49.474Z,95666.00
2018-07-06T16:57:19.452Z,95669.00
2018-07-06T16:59:49.700Z,95670.00
2018-07-06T17:02:19.589Z,95668.00
2018-07-06T17:04:49.609Z,95669.00
2018-07-06T17:07:19.606Z,95677.00
2018-07-06T17:09:49.697Z,95680.00
2018-07-06T17:12:19.785Z,95687.00
2018-07-06T17:14:49.786Z,95679.00
2018-07-06T17:17:19.809Z,95678.00
2018-07-06T17:19:49.726Z,95679.00
2018-07-06T17:22:19.962Z,95664.00
2018-07-06T17:24:49.614Z,95669.00
2018-07-06T17:27:19.739Z,95668.00
2018-07-06T17:29:49.917Z,95665.00
2018-07-06T17:32:19.951Z,95670.00
2018-07-06T17:34:50.018Z,95669.00
2018-07-06T17:37:19.977Z,95681.00
2018-07-06T17:39:49.878Z,95677.00
2018-07-06T17:42:19.998Z,95679.00
2018-07-06T17:44:49.965Z,95683.00
2018-07-06T17:47:19.942Z,95686.00
2018-07-06T17:49:50.146Z,95685.00
2018-07-06T17:52:20.082Z,95679.00
2018-07-06T17:54:50.253Z,95680.00
2018-07-06T17:57:20.426Z,95684.00
2018-07-06T17:59:50.223Z,95690.00
2018-07-06T18:02:20.232Z,95693.00
2018-07-06T18:04:50.529Z,95693.00
2018-07-06T18:07:20.626Z,95685.00
2018-07-06T18:09:50.318Z,95693.00
2018-07-06T18:12:20.539Z,95689.00
2018-07-06T18:14:50.169Z,95680.00
2018-07-06T18:17:20.182Z,95691.00
2018-07-06T18:19:50.392Z,95685.00
2018-07-06T18:22:20.557Z,95686.00
2018-07-06T18:24:50.530Z,95697.00
2018-07-06T18:27:21.369Z,95696.00
2018-07-06T18:29:50.697Z,95692.00
2018-07-06T18:32:20.690Z,95686.00
2018-07-06T18:34:49.883Z,95688.00
2018-07-06T18:37:19.142Z,95697.00
2018-07-06T18:39:48.145Z,95697.00
2018-07-06T18:42:17.350Z,95706.00
2018-07-06T18:44:46.238Z,95709.00
2018-07-06T18:47:15.353Z,95699.00
2018-07-06T18:49:44.561Z,95698.00
2018-07-06T18:52:13.918Z,95700.00
2018-07-06T18:54:43.089Z,95698.00
2018-07-06T18:57:12.374Z,95703.00
2018-07-06T18:59:41.718Z,95696.00
2018-07-06T19:02:10.898Z,95704.00
2018-07-06T19:04:39.995Z,95710.00
2018-07-06T19:07:09.198Z,95711.00
2018-07-06T19:09:38.315Z,95728.00
2018-07-06T19:12:07.517Z,95724.00
2018-07-06T19:14:37.526Z,95724.00
2018-07-06T19:17:06.755Z,95718.00
2018-07-06T19:19:35.928Z,95725.00
2018-07-06T19:22:05.128Z,95722.00
2018-07-06T19:24:34.318Z,95719.00
2018-07-06T19:27:03.175Z,95728.00
2018-07-06T19:29:32.409Z,95727.00
2018-07-06T19:32:01.406Z,95727.00
2018-07-06T19:34:30.590Z,95730.00
2018-07-06T19:36:59.862Z,95732.00
2018-07-06T19:39:29.038Z,95731.00
2018-07-06T19:41:58.237Z,95742.00
2018-07-06T19:44:27.518Z,95736.00
2018-07-06T19:46:56.818Z,95743.00
2018-07-06T19:49:25.948Z,95747.00
2018-07-06T19:51:55.343Z,95750.00
2018-07-06T19:54:24.609Z,95754.00
2018-07-06T19:56:53.823Z,95760.00
2018-07-06T19:59:24.130Z,95757.00
2018-07-06T20:01:53.309Z,95749.00
2018-07-06T20:04:22.462Z,95750.00
2018-07-06T20:06:51.703Z,95761.00
2018-07-06T20:09:21.689Z,95770.00
2018-07-06T20:11:51.733Z,95770.00
2018-07-06T20:14:21.614Z,95773.00
2018-07-06T20:16:51.797Z,95775.00
2018-07-06T20:19:21.856Z,95782.00
2018-07-06T20:24:28.114Z,95793.00
2018-07-06T20:26:57.306Z,95800.00
2018-07-06T20:29:26.494Z,95798.00
2018-07-06T20:31:55.629Z,95803.00
2018-07-06T20:34:24.724Z,95804.00
2018-07-06T20:36:53.847Z,95804.00
2018-07-06T20:39:24.090Z,95814.00
2018-07-06T20:41:53.456Z,95815.00
2018-07-06T20:44:23.702Z,95829.00
2018-07-06T20:46:53.080Z,95839.00
2018-07-06T20:49:22.398Z,95843.00
2018-07-06T20:51:52.065Z,95842.00
2018-07-06T20:54:22.311Z,95844.00
2018-07-06T20:56:52.179Z,95839.00
2018-07-06T20:59:22.067Z,95842.00
2018-07-06T21:01:52.162Z,95839.00
2018-07-06T21:04:22.117Z,95846.00
2018-07-06T21:06:52.154Z,95843.00
2018-07-06T21:09:22.227Z,95844.00
2018-07-06T21:11:52.314Z,95843.00
2018-07-06T21:14:22.246Z,95844.00
2018-07-06T21:16:52.045Z,95835.00
2018-07-06T21:19:22.408Z,95847.00
2018-07-06T21:21:52.363Z,95855.00
2018-07-06T21:24:22.458Z,95842.00
2018-07-06T21:26:52.454Z,95859.00
2018-07-06T21:29:22.481Z,95859.00
2018-07-06T21:31:52.502Z,95868.00
2018-07-06T21:34:22.489Z,95878.00
2018-07-06T21:36:52.526Z,95867.00
2018-07-06T21:39:22.518Z,95875.00
2018-07-06T21:41:52.452Z,95876.00
2018-07-06T21:44:22.520Z,95873.00
2018-07-06T21:46:52.355Z,95864.00
2018-07-06T21:49:22.417Z,95868.00
2018-07-06T21:51:52.842Z,95871.00
2018-07-06T21:54:24.813Z,95864.00
2018-07-06T21:56:53.897Z,95868.00
2018-07-06T21:59:23.970Z,95865.00
2018-07-06T22:01:53.151Z,95868.00
2018-07-06T22:04:23.658Z,95868.00
2018-07-06T22:06:52.956Z,95865.00
2018-07-06T22:09:23.738Z,95864.00
2018-07-06T22:11:53.333Z,95865.00
2018-07-06T22:14:22.691Z,95866.00
2018-07-06T22:16:52.909Z,95874.00
2018-07-06T22:19:23.885Z,95870.00
2018-07-06T22:21:53.554Z,95871.00
2018-07-06T22:24:24.486Z,95872.00
2018-07-06T22:26:53.664Z,95873.00
2018-07-06T22:29:24.260Z,95874.00
2018-07-06T22:31:53.462Z,95866.00
2018-07-06T22:34:23.345Z,95877.00
2018-07-06T22:36:53.397Z,95881.00
2018-07-06T22:39:24.053Z,95886.00
2018-07-06T22:41:53.301Z,95886.00
2018-07-06T22:44:23.382Z,95886.00
2018-07-06T22:46:53.405Z,95878.00
2018-07-06T22:49:23.444Z,95881.00
2018-07-06T22:51:53.318Z,95889.00
2018-07-06T22:54:23.399Z,95886.00
2018-07-06T22:56:53.365Z,95880.00
2018-07-06T22:59:23.457Z,95888.00
2018-07-06T23:01:53.660Z,95887.00
2018-07-06T23:04:23.603Z,95884.00
2018-07-06T23:06:53.849Z,95885.00
2018-07-06T23:09:23.471Z,95882.00
2018-07-06T23:11:53.646Z,95869.00
2018-07-06T23:14:23.810Z,95876.00
2018-07-06T23:16:53.805Z,95874.00
2018-07-06T23:19:24.988Z,95877.00
2018-07-06T23:21:54.150Z,95878.00
2018-07-06T23:24:23.872Z,95881.00
2018-07-06T23:26:53.889Z,95879.00
2018-07-06T23:29:25.103Z,95873.00
2018-07-06T23:31:54.175Z,95890.00
2018-07-06T23:34:25.022Z,95884.00
2018-07-06T23:36:54.302Z,95887.00
2018-07-06T23:39:24.934Z,95885.00
2018-07-06T23:41:54.175Z,95871.00
2018-07-06T23:44:25.334Z,95871.00
2018-07-06T23:46:54.390Z,95881.00
2018-07-06T23:49:25.257Z,95869.00
2018-07-06T23:51:54.447Z,95878.00
2018-07-06T23:54:25.225Z,95877.00
2018-07-06T23:56:54.347Z,95872.00
2018-07-06T23:59:26.374Z,95880.00
